Bandarabbass, Iran
Current Conditions -  °F | °C
As of 7:00 PM on Sunday 21 Dec 2014 (Local Time) from OIKB Reporting Station
Clear Clear  
Wind Chill: 70°   Ceiling: Unl
Heat Index: 70°   Visibility: 4mi
Dew Point: 59°   Wind: 5mph
Humidity: 68%   Direction: 230°SW
Pressure: 29.91"   Gusts: NA
Location:  27.22°N, 56.37°E
Report Text: OIKB 211600Z 23004KT 7000 NSC 21/15 Q1013 A2993
Loading
Personal Weather Stations






























Interactive Weather Map New forecast layout! Learn more

10-Day Weather Forecast

Advertisements
Track Severe Weather on mobile